Thomson Dream — 9HA2381 — position and weather

sailwx.info

Track history (hours):
 
Tides and Currents Weather Stations Pressure Air Temp Water Temp Dewpoint Dewpoint Depression Visibility Wind Speed Wind Dir Waves Ship Positions

Thomson Dream

Last reported at 2017-Jan-09 05:13 UTC. Time now 2017-Jan-19 21:19 UTC.
Position N 20°35' W 086°56'.
Warning: this ship's position is 10 days out of date.

Length 243 m; draft 7.6 m.

Type: Ship. MMSI: 248480975.

Date/timePositionNaut miles runAvg speedWind from/ knotsBaromVisibWave heightAir tempDewpointWater temp
2017-Jan-09 05:13N 20°35' W 086°56'6 9.3
2017-Jan-09 04:32N 20°29' W 086°59'0 0.0
2017-Jan-09 03:32N 20°29' W 086°59'0 0.0
2017-Jan-09 02:32N 20°29' W 086°59'0 0.0
2017-Jan-09 01:32N 20°29' W 086°59'0 0.0
2017-Jan-09 00:32N 20°29' W 086°59'0 0.0
2017-Jan-08 23:32N 20°29' W 086°59'0 0.0
2017-Jan-08 22:32N 20°29' W 086°59'0 0.0
2017-Jan-08 21:32N 20°29' W 086°59'0 0.0
2017-Jan-08 20:32N 20°29' W 086°59'0 0.0
2017-Jan-08 19:32N 20°29' W 086°59'0 0.0
2017-Jan-08 18:32N 20°29' W 086°59'0 0.0
2017-Jan-08 17:32N 20°29' W 086°59'0 0.0
2017-Jan-08 16:32N 20°29' W 086°59'0 0.0
2017-Jan-08 15:32N 20°29' W 086°59'0 0.0
2017-Jan-08 14:33N 20°29' W 086°59'2 1.7
2017-Jan-08 13:33N 20°28' W 087°00'7 7.4
2017-Jan-08 12:34N 20°35' W 086°56'  
2017-Jan-01 22:06N 20°31' W 086°57'0 0.0
2017-Jan-01 21:30N 20°31' W 086°57'0 0.0
2017-Jan-01 20:33N 20°31' W 086°57'0 0.0
2017-Jan-01 19:33N 20°31' W 086°57'0 0.0
2017-Jan-01 18:33N 20°31' W 086°57'0 0.0
2017-Jan-01 17:33N 20°31' W 086°57'0 0.0
2017-Jan-01 16:32N 20°31' W 086°57'0 0.0
2017-Jan-01 15:32N 20°31' W 086°57'0 0.0
2017-Jan-01 14:32N 20°31' W 086°57'0 0.0
2017-Jan-01 13:32N 20°31' W 086°57'0 0.0
2017-Jan-01 12:33N 20°31' W 086°57'4 4.0
2017-Jan-01 11:34N 20°33' W 087°00'  
Track history (hours):
 
Tides and Currents Weather Stations Pressure Air Temp Water Temp Dewpoint Dewpoint Depression Visibility Wind Speed Wind Dir Waves Ship Positions

Thomson Dream

Last reported at 2017-Jan-09 05:13 UTC. Time now 2017-Jan-19 21:19 UTC.
Position N 20°35' W 086°56'.
Warning: this ship's position is 10 days out of date.

Length 243 m; draft 7.6 m.

Type: Ship. MMSI: 248480975.

Date/timePositionNaut miles runAvg speedWind from/ knotsBaromVisibWave heightAir tempDewpointWater temp
2017-Jan-09 05:13N 20°35' W 086°56'6 9.3
2017-Jan-09 04:32N 20°29' W 086°59'0 0.0
2017-Jan-09 03:32N 20°29' W 086°59'0 0.0
2017-Jan-09 02:32N 20°29' W 086°59'0 0.0
2017-Jan-09 01:32N 20°29' W 086°59'0 0.0
2017-Jan-09 00:32N 20°29' W 086°59'0 0.0
2017-Jan-08 23:32N 20°29' W 086°59'0 0.0
2017-Jan-08 22:32N 20°29' W 086°59'0 0.0
2017-Jan-08 21:32N 20°29' W 086°59'0 0.0
2017-Jan-08 20:32N 20°29' W 086°59'0 0.0
2017-Jan-08 19:32N 20°29' W 086°59'0 0.0
2017-Jan-08 18:32N 20°29' W 086°59'0 0.0
2017-Jan-08 17:32N 20°29' W 086°59'0 0.0
2017-Jan-08 16:32N 20°29' W 086°59'0 0.0
2017-Jan-08 15:32N 20°29' W 086°59'0 0.0
2017-Jan-08 14:33N 20°29' W 086°59'2 1.7
2017-Jan-08 13:33N 20°28' W 087°00'7 7.4
2017-Jan-08 12:34N 20°35' W 086°56'  
2017-Jan-01 22:06N 20°31' W 086°57'0 0.0
2017-Jan-01 21:30N 20°31' W 086°57'0 0.0
2017-Jan-01 20:33N 20°31' W 086°57'0 0.0
2017-Jan-01 19:33N 20°31' W 086°57'0 0.0
2017-Jan-01 18:33N 20°31' W 086°57'0 0.0
2017-Jan-01 17:33N 20°31' W 086°57'0 0.0
2017-Jan-01 16:32N 20°31' W 086°57'0 0.0
2017-Jan-01 15:32N 20°31' W 086°57'0 0.0
2017-Jan-01 14:32N 20°31' W 086°57'0 0.0
2017-Jan-01 13:32N 20°31' W 086°57'0 0.0
2017-Jan-01 12:33N 20°31' W 086°57'4 4.0
2017-Jan-01 11:34N 20°33' W 087°00'  

Dump ship's entire track history